sensor_id;sensor_type;location;lat;lon;timestamp;pressure;altitude;pressure_sealevel;temperature;humidity
62791;BME280;48830;53.426;10.300;2023-01-26T00:01:38;102425.97;;;-1.13;100.00
62791;BME280;48830;53.426;10.300;2023-01-26T00:04:03;102429.50;;;-1.11;100.00
62791;BME280;48830;53.426;10.300;2023-01-26T00:06:29;102430.38;;;-1.10;100.00
62791;BME280;48830;53.426;10.300;2023-01-26T00:08:55;102426.50;;;-1.07;100.00
62791;BME280;48830;53.426;10.300;2023-01-26T00:11:25;102421.34;;;-0.98;100.00
62791;BME280;48830;53.426;10.300;2023-01-26T00:13:52;102426.91;;;-1.02;100.00
62791;BME280;48830;53.426;10.300;2023-01-26T00:16:18;102420.81;;;-1.04;100.00
62791;BME280;48830;53.426;10.300;2023-01-26T00:18:43;102418.34;;;-0.94;100.00
62791;BME280;48830;53.426;10.300;2023-01-26T00:21:14;102420.41;;;-1.09;100.00
62791;BME280;48830;53.426;10.300;2023-01-26T00:23:40;102415.53;;;-1.07;100.00
62791;BME280;48830;53.426;10.300;2023-01-26T00:26:07;102419.28;;;-1.12;100.00
62791;BME280;48830;53.426;10.300;2023-01-26T00:28:33;102418.66;;;-1.10;100.00
62791;BME280;48830;53.426;10.300;2023-01-26T00:31:06;102419.94;;;-1.04;100.00
62791;BME280;48830;53.426;10.300;2023-01-26T00:33:32;102405.78;;;-1.13;100.00
62791;BME280;48830;53.426;10.300;2023-01-26T00:35:58;102408.84;;;-1.07;100.00
62791;BME280;48830;53.426;10.300;2023-01-26T00:38:25;102411.78;;;-1.02;100.00
62791;BME280;48830;53.426;10.300;2023-01-26T00:40:51;102399.81;;;-1.13;100.00
62791;BME280;48830;53.426;10.300;2023-01-26T00:43:16;102391.03;;;-1.08;100.00
62791;BME280;48830;53.426;10.300;2023-01-26T00:45:42;102390.53;;;-1.04;100.00
62791;BME280;48830;53.426;10.300;2023-01-26T00:48:08;102384.53;;;-0.96;100.00
62791;BME280;48830;53.426;10.300;2023-01-26T00:50:34;102389.84;;;-0.93;100.00
62791;BME280;48830;53.426;10.300;2023-01-26T00:52:59;102386.88;;;-1.08;100.00
62791;BME280;48830;53.426;10.300;2023-01-26T00:55:25;102384.00;;;-1.02;100.00
62791;BME280;48830;53.426;10.300;2023-01-26T00:58:02;102378.22;;;-1.01;100.00
62791;BME280;48830;53.426;10.300;2023-01-26T01:00:29;102383.03;;;-0.94;100.00
62791;BME280;48830;53.426;10.300;2023-01-26T01:02:54;102371.16;;;-0.95;100.00
62791;BME280;48830;53.426;10.300;2023-01-26T01:05:24;102368.59;;;-1.05;100.00
62791;BME280;48830;53.426;10.300;2023-01-26T01:07:50;102364.56;;;-1.03;100.00
62791;BME280;48830;53.426;10.300;2023-01-26T01:10:16;102371.59;;;-1.09;100.00
62791;BME280;48830;53.426;10.300;2023-01-26T01:12:42;102371.00;;;-1.07;100.00
62791;BME280;48830;53.426;10.300;2023-01-26T01:15:08;102366.34;;;-1.02;100.00
62791;BME280;48830;53.426;10.300;2023-01-26T01:17:33;102362.03;;;-1.03;100.00
62791;BME280;48830;53.426;10.300;2023-01-26T01:20:05;102370.09;;;-1.07;100.00
62791;BME280;48830;53.426;10.300;2023-01-26T01:22:32;102364.44;;;-1.04;100.00
62791;BME280;48830;53.426;10.300;2023-01-26T01:24:57;102361.25;;;-1.12;100.00
62791;BME280;48830;53.426;10.300;2023-01-26T01:27:22;102356.31;;;-1.11;100.00
62791;BME280;48830;53.426;10.300;2023-01-26T01:29:49;102363.91;;;-1.11;100.00
62791;BME280;48830;53.426;10.300;2023-01-26T01:32:15;102363.53;;;-1.05;100.00
62791;BME280;48830;53.426;10.300;2023-01-26T01:34:40;102362.59;;;-0.97;100.00
62791;BME280;48830;53.426;10.300;2023-01-26T01:37:05;102360.94;;;-0.96;100.00
62791;BME280;48830;53.426;10.300;2023-01-26T01:39:31;102359.38;;;-1.04;100.00
62791;BME280;48830;53.426;10.300;2023-01-26T01:41:56;102356.97;;;-1.03;100.00
62791;BME280;48830;53.426;10.300;2023-01-26T01:44:24;102359.50;;;-1.03;100.00
62791;BME280;48830;53.426;10.300;2023-01-26T01:47:13;102362.03;;;-1.03;100.00
62791;BME280;48830;53.426;10.300;2023-01-26T01:49:45;102366.88;;;-0.96;100.00
62791;BME280;48830;53.426;10.300;2023-01-26T01:52:16;102355.75;;;-0.98;100.00
62791;BME280;48830;53.426;10.300;2023-01-26T01:54:45;102354.91;;;-0.88;100.00
62791;BME280;48830;53.426;10.300;2023-01-26T01:57:18;102355.03;;;-0.87;100.00
62791;BME280;48830;53.426;10.300;2023-01-26T02:00:06;102356.31;;;-0.82;100.00
62791;BME280;48830;53.426;10.300;2023-01-26T02:02:38;102351.78;;;-0.86;100.00
62791;BME280;48830;53.426;10.300;2023-01-26T02:05:13;102348.84;;;-0.90;100.00
62791;BME280;48830;53.426;10.300;2023-01-26T02:07:42;102343.81;;;-0.90;100.00
62791;BME280;48830;53.426;10.300;2023-01-26T02:10:08;102337.88;;;-0.91;100.00
62791;BME280;48830;53.426;10.300;2023-01-26T02:12:43;102332.19;;;-0.88;100.00
62791;BME280;48830;53.426;10.300;2023-01-26T02:15:10;102341.81;;;-0.84;100.00
62791;BME280;48830;53.426;10.300;2023-01-26T02:17:37;102325.53;;;-0.77;100.00
62791;BME280;48830;53.426;10.300;2023-01-26T02:25:08;102324.25;;;-0.83;100.00
62791;BME280;48830;53.426;10.300;2023-01-26T02:27:36;102321.50;;;-0.86;100.00
62791;BME280;48830;53.426;10.300;2023-01-26T02:30:03;102328.53;;;-0.82;100.00
62791;BME280;48830;53.426;10.300;2023-01-26T02:32:30;102319.69;;;-0.87;100.00
62791;BME280;48830;53.426;10.300;2023-01-26T02:34:56;102325.28;;;-0.81;100.00
62791;BME280;48830;53.426;10.300;2023-01-26T02:37:22;102323.13;;;-0.76;100.00
62791;BME280;48830;53.426;10.300;2023-01-26T02:39:55;102319.72;;;-0.76;100.00
62791;BME280;48830;53.426;10.300;2023-01-26T02:42:22;102314.19;;;-0.72;100.00
62791;BME280;48830;53.426;10.300;2023-01-26T02:45:04;102314.63;;;-0.87;100.00
62791;BME280;48830;53.426;10.300;2023-01-26T02:47:30;102312.50;;;-0.82;100.00
62791;BME280;48830;53.426;10.300;2023-01-26T02:49:56;102300.53;;;-0.85;100.00
62791;BME280;48830;53.426;10.300;2023-01-26T02:52:24;102307.81;;;-0.88;100.00
62791;BME280;48830;53.426;10.300;2023-01-26T02:54:55;102300.25;;;-0.88;100.00
62791;BME280;48830;53.426;10.300;2023-01-26T02:57:40;102308.09;;;-0.85;100.00
62791;BME280;48830;53.426;10.300;2023-01-26T03:00:21;102307.84;;;-0.77;100.00
62791;BME280;48830;53.426;10.300;2023-01-26T03:02:50;102298.53;;;-0.78;100.00
62791;BME280;48830;53.426;10.300;2023-01-26T03:05:16;102292.59;;;-0.79;100.00
62791;BME280;48830;53.426;10.300;2023-01-26T03:07:41;102297.53;;;-0.81;100.00
62791;BME280;48830;53.426;10.300;2023-01-26T03:10:08;102287.53;;;-0.79;100.00
62791;BME280;48830;53.426;10.300;2023-01-26T03:12:34;102285.66;;;-0.71;100.00
62791;BME280;48830;53.426;10.300;2023-01-26T03:14:59;102288.94;;;-0.72;100.00
62791;BME280;48830;53.426;10.300;2023-01-26T03:17:43;102287.94;;;-0.74;100.00
62791;BME280;48830;53.426;10.300;2023-01-26T03:20:09;102292.47;;;-0.70;100.00
62791;BME280;48830;53.426;10.300;2023-01-26T03:22:54;102285.41;;;-0.74;100.00
62791;BME280;48830;53.426;10.300;2023-01-26T03:25:38;102288.81;;;-0.74;100.00
62791;BME280;48830;53.426;10.300;2023-01-26T03:28:23;102275.31;;;-0.74;100.00
62791;BME280;48830;53.426;10.300;2023-01-26T03:30:53;102286.66;;;-0.80;100.00
62791;BME280;48830;53.426;10.300;2023-01-26T03:33:20;102289.94;;;-0.81;100.00
62791;BME280;48830;53.426;10.300;2023-01-26T03:35:46;102288.44;;;-0.78;100.00
62791;BME280;48830;53.426;10.300;2023-01-26T03:38:12;102289.44;;;-0.76;100.00
62791;BME280;48830;53.426;10.300;2023-01-26T03:40:43;102286.91;;;-0.76;100.00
62791;BME280;48830;53.426;10.300;2023-01-26T03:43:28;102279.84;;;-0.81;100.00
62791;BME280;48830;53.426;10.300;2023-01-26T03:46:12;102280.97;;;-0.77;100.00
62791;BME280;48830;53.426;10.300;2023-01-26T03:48:56;102282.13;;;-0.73;100.00
62791;BME280;48830;53.426;10.300;2023-01-26T03:51:41;102288.66;;;-0.75;100.00
62791;BME280;48830;53.426;10.300;2023-01-26T03:54:26;102289.94;;;-0.70;100.00
62791;BME280;48830;53.426;10.300;2023-01-26T03:57:10;102284.28;;;-0.68;100.00
62791;BME280;48830;53.426;10.300;2023-01-26T03:59:36;102285.28;;;-0.66;100.00
62791;BME280;48830;53.426;10.300;2023-01-26T04:02:09;102290.09;;;-0.69;100.00
62791;BME280;48830;53.426;10.300;2023-01-26T04:04:54;102287.97;;;-0.64;100.00
62791;BME280;48830;53.426;10.300;2023-01-26T04:07:42;102284.41;;;-0.66;100.00
62791;BME280;48830;53.426;10.300;2023-01-26T04:10:27;102288.84;;;-0.64;100.00
62791;BME280;48830;53.426;10.300;2023-01-26T04:12:52;102293.00;;;-0.64;100.00
62791;BME280;48830;53.426;10.300;2023-01-26T04:15:39;102293.25;;;-0.61;100.00
62791;BME280;48830;53.426;10.300;2023-01-26T04:18:23;102285.94;;;-0.68;100.00
62791;BME280;48830;53.426;10.300;2023-01-26T04:21:08;102286.81;;;-0.68;100.00
62791;BME280;48830;53.426;10.300;2023-01-26T04:23:52;102277.72;;;-0.66;100.00
62791;BME280;48830;53.426;10.300;2023-01-26T04:26:27;102276.06;;;-0.65;100.00
62791;BME280;48830;53.426;10.300;2023-01-26T04:29:00;102275.81;;;-0.68;100.00
62791;BME280;48830;53.426;10.300;2023-01-26T04:31:26;102266.22;;;-0.62;100.00
62791;BME280;48830;53.426;10.300;2023-01-26T04:33:52;102274.19;;;-0.68;100.00
62791;BME280;48830;53.426;10.300;2023-01-26T04:36:18;102277.59;;;-0.67;100.00
62791;BME280;48830;53.426;10.300;2023-01-26T04:38:46;102274.56;;;-0.63;100.00
62791;BME280;48830;53.426;10.300;2023-01-26T04:41:15;102275.97;;;-0.57;100.00
62791;BME280;48830;53.426;10.300;2023-01-26T04:43:45;102260.16;;;-0.54;100.00
62791;BME280;48830;53.426;10.300;2023-01-26T04:46:11;102259.91;;;-0.67;100.00
62791;BME280;48830;53.426;10.300;2023-01-26T04:48:38;102253.88;;;-0.59;100.00
62791;BME280;48830;53.426;10.300;2023-01-26T04:51:12;102245.16;;;-0.63;100.00
62791;BME280;48830;53.426;10.300;2023-01-26T04:53:37;102251.34;;;-0.59;100.00
62791;BME280;48830;53.426;10.300;2023-01-26T04:56:04;102255.88;;;-0.55;100.00
62791;BME280;48830;53.426;10.300;2023-01-26T04:58:31;102243.78;;;-0.59;100.00
62791;BME280;48830;53.426;10.300;2023-01-26T05:00:57;102247.28;;;-0.67;100.00
62791;BME280;48830;53.426;10.300;2023-01-26T05:03:24;102249.81;;;-0.67;100.00
62791;BME280;48830;53.426;10.300;2023-01-26T05:05:52;102249.94;;;-0.56;100.00
62791;BME280;48830;53.426;10.300;2023-01-26T05:08:20;102245.53;;;-0.58;100.00
62791;BME280;48830;53.426;10.300;2023-01-26T05:10:47;102245.38;;;-0.60;100.00
62791;BME280;48830;53.426;10.300;2023-01-26T05:13:31;102239.97;;;-0.54;100.00
62791;BME280;48830;53.426;10.300;2023-01-26T05:16:21;102236.31;;;-0.58;100.00
62791;BME280;48830;53.426;10.300;2023-01-26T05:19:15;102237.69;;;-0.61;100.00
62791;BME280;48830;53.426;10.300;2023-01-26T05:22:04;102244.50;;;-0.60;100.00
62791;BME280;48830;53.426;10.300;2023-01-26T05:24:31;102249.84;;;-0.57;100.00
62791;BME280;48830;53.426;10.300;2023-01-26T05:27:15;102246.66;;;-0.55;100.00
62791;BME280;48830;53.426;10.300;2023-01-26T05:29:56;102248.81;;;-0.49;100.00
62791;BME280;48830;53.426;10.300;2023-01-26T05:32:25;102244.28;;;-0.43;100.00
62791;BME280;48830;53.426;10.300;2023-01-26T05:34:51;102244.53;;;-0.40;100.00
62791;BME280;48830;53.426;10.300;2023-01-26T05:37:18;102235.19;;;-0.41;100.00
62791;BME280;48830;53.426;10.300;2023-01-26T05:39:44;102244.78;;;-0.37;100.00
62791;BME280;48830;53.426;10.300;2023-01-26T05:42:11;102243.00;;;-0.38;100.00
62791;BME280;48830;53.426;10.300;2023-01-26T05:44:57;102240.84;;;-0.33;100.00
62791;BME280;48830;53.426;10.300;2023-01-26T05:47:22;102241.00;;;-0.42;100.00
62791;BME280;48830;53.426;10.300;2023-01-26T05:49:49;102245.69;;;-0.36;100.00
62791;BME280;48830;53.426;10.300;2023-01-26T05:52:19;102247.56;;;-0.34;100.00
62791;BME280;48830;53.426;10.300;2023-01-26T05:54:46;102243.00;;;-0.38;100.00
62791;BME280;48830;53.426;10.300;2023-01-26T05:57:11;102242.50;;;-0.44;100.00
62791;BME280;48830;53.426;10.300;2023-01-26T05:59:42;102245.41;;;-0.39;100.00
62791;BME280;48830;53.426;10.300;2023-01-26T06:02:10;102247.56;;;-0.44;100.00
62791;BME280;48830;53.426;10.300;2023-01-26T06:04:36;102253.38;;;-0.35;100.00
62791;BME280;48830;53.426;10.300;2023-01-26T06:07:02;102244.53;;;-0.30;100.00
62791;BME280;48830;53.426;10.300;2023-01-26T06:09:33;102247.81;;;-0.41;100.00
62791;BME280;48830;53.426;10.300;2023-01-26T06:12:21;102245.19;;;-0.42;100.00
62791;BME280;48830;53.426;10.300;2023-01-26T06:14:57;102242.50;;;-0.44;100.00
62791;BME280;48830;53.426;10.300;2023-01-26T06:17:30;102254.53;;;-0.31;100.00
62791;BME280;48830;53.426;10.300;2023-01-26T06:19:58;102250.34;;;-0.31;100.00
62791;BME280;48830;53.426;10.300;2023-01-26T06:22:24;102253.09;;;-0.28;100.00
62791;BME280;48830;53.426;10.300;2023-01-26T06:24:50;102251.72;;;-0.34;100.00
62791;BME280;48830;53.426;10.300;2023-01-26T06:27:16;102257.53;;;-0.35;100.00
62791;BME280;48830;53.426;10.300;2023-01-26T06:29:43;102264.63;;;-0.31;100.00
62791;BME280;48830;53.426;10.300;2023-01-26T06:32:13;102262.47;;;-0.27;100.00
62791;BME280;48830;53.426;10.300;2023-01-26T06:34:39;102262.88;;;-0.32;100.00
62791;BME280;48830;53.426;10.300;2023-01-26T06:37:06;102266.78;;;-0.25;100.00
62791;BME280;48830;53.426;10.300;2023-01-26T06:39:35;102266.28;;;-0.32;100.00
62791;BME280;48830;53.426;10.300;2023-01-26T06:42:01;102265.50;;;-0.31;100.00
62791;BME280;48830;53.426;10.300;2023-01-26T06:44:27;102262.34;;;-0.28;100.00
62791;BME280;48830;53.426;10.300;2023-01-26T06:46:52;102269.03;;;-0.29;100.00
62791;BME280;48830;53.426;10.300;2023-01-26T06:49:18;102263.97;;;-0.29;100.00
62791;BME280;48830;53.426;10.300;2023-01-26T06:54:48;102269.31;;;-0.15;100.00
62791;BME280;48830;53.426;10.300;2023-01-26T06:57:40;102273.31;;;-0.17;100.00
62791;BME280;48830;53.426;10.300;2023-01-26T07:00:24;102277.38;;;-0.09;100.00
62791;BME280;48830;53.426;10.300;2023-01-26T07:02:58;102271.44;;;-0.20;100.00
62791;BME280;48830;53.426;10.300;2023-01-26T07:05:23;102269.53;;;-0.22;100.00
62791;BME280;48830;53.426;10.300;2023-01-26T07:07:48;102274.84;;;-0.19;100.00
62791;BME280;48830;53.426;10.300;2023-01-26T07:10:14;102277.13;;;-0.12;100.00
62791;BME280;48830;53.426;10.300;2023-01-26T07:12:42;102278.75;;;-0.13;100.00
62791;BME280;48830;53.426;10.300;2023-01-26T07:15:09;102271.94;;;-0.14;100.00
62791;BME280;48830;53.426;10.300;2023-01-26T07:17:36;102279.13;;;-0.08;100.00
62791;BME280;48830;53.426;10.300;2023-01-26T07:20:02;102272.06;;;-0.12;100.00
62791;BME280;48830;53.426;10.300;2023-01-26T07:22:27;102273.59;;;-0.14;100.00
62791;BME280;48830;53.426;10.300;2023-01-26T07:24:53;102279.53;;;-0.14;100.00
62791;BME280;48830;53.426;10.300;2023-01-26T07:27:18;102283.31;;;-0.09;100.00
62791;BME280;48830;53.426;10.300;2023-01-26T07:29:44;102274.09;;;-0.08;100.00
62791;BME280;48830;53.426;10.300;2023-01-26T07:32:11;102280.91;;;-0.07;100.00
62791;BME280;48830;53.426;10.300;2023-01-26T07:34:36;102278.75;;;-0.13;100.00
62791;BME280;48830;53.426;10.300;2023-01-26T07:37:01;102282.81;;;-0.15;100.00
62791;BME280;48830;53.426;10.300;2023-01-26T07:39:27;102274.34;;;-0.15;100.00
62791;BME280;48830;53.426;10.300;2023-01-26T07:41:52;102277.38;;;-0.09;100.00
62791;BME280;48830;53.426;10.300;2023-01-26T07:44:44;102279.91;;;-0.09;100.00
62791;BME280;48830;53.426;10.300;2023-01-26T07:47:09;102289.53;;;-0.05;100.00
62791;BME280;48830;53.426;10.300;2023-01-26T07:49:35;102291.28;;;-0.04;100.00
62791;BME280;48830;53.426;10.300;2023-01-26T07:52:00;102281.41;;;-0.01;100.00
62791;BME280;48830;53.426;10.300;2023-01-26T07:54:26;102281.53;;;0.01;100.00
62791;BME280;48830;53.426;10.300;2023-01-26T07:56:52;102284.69;;;-0.02;100.00
62791;BME280;48830;53.426;10.300;2023-01-26T07:59:20;102280.91;;;-0.07;100.00
62791;BME280;48830;53.426;10.300;2023-01-26T08:01:48;102277.50;;;-0.08;100.00
62791;BME280;48830;53.426;10.300;2023-01-26T08:04:13;102281.78;;;0.04;100.00
62791;BME280;48830;53.426;10.300;2023-01-26T08:06:39;102288.25;;;0.00;100.00
62791;BME280;48830;53.426;10.300;2023-01-26T08:09:04;102292.66;;;0.03;100.00
62791;BME280;48830;53.426;10.300;2023-01-26T08:11:30;102286.22;;;-0.04;100.00
62791;BME280;48830;53.426;10.300;2023-01-26T08:13:55;102290.78;;;-0.10;100.00
62791;BME280;48830;53.426;10.300;2023-01-26T08:16:21;102285.56;;;-0.02;100.00
62791;BME280;48830;53.426;10.300;2023-01-26T08:18:47;102287.47;;;0.01;100.00
62791;BME280;48830;53.426;10.300;2023-01-26T08:21:14;102285.34;;;-0.05;100.00
62791;BME280;48830;53.426;10.300;2023-01-26T08:23:40;102281.41;;;-0.01;100.00
62791;BME280;48830;53.426;10.300;2023-01-26T08:26:08;102278.38;;;0.03;100.00
62791;BME280;48830;53.426;10.300;2023-01-26T08:28:34;102276.22;;;0.08;100.00
62791;BME280;48830;53.426;10.300;2023-01-26T08:31:12;102280.63;;;0.10;100.00
62791;BME280;48830;53.426;10.300;2023-01-26T08:33:40;102284.03;;;0.11;100.00
62791;BME280;48830;53.426;10.300;2023-01-26T08:36:09;102284.69;;;0.18;100.00
62791;BME280;48830;53.426;10.300;2023-01-26T08:38:35;102292.25;;;0.18;100.00
62791;BME280;48830;53.426;10.300;2023-01-26T08:41:01;102284.00;;;0.31;100.00
62791;BME280;48830;53.426;10.300;2023-01-26T08:43:27;102295.78;;;0.31;100.00
62791;BME280;48830;53.426;10.300;2023-01-26T08:45:53;102289.69;;;0.39;100.00
62791;BME280;48830;53.426;10.300;2023-01-26T08:48:19;102287.94;;;0.38;100.00
62791;BME280;48830;53.426;10.300;2023-01-26T08:50:44;102304.88;;;0.39;100.00
62791;BME280;48830;53.426;10.300;2023-01-26T08:53:10;102298.53;;;0.44;100.00
62791;BME280;48830;53.426;10.300;2023-01-26T08:55:35;102288.44;;;0.44;100.00
62791;BME280;48830;53.426;10.300;2023-01-26T08:58:01;102293.72;;;0.47;100.00
62791;BME280;48830;53.426;10.300;2023-01-26T09:00:27;102288.75;;;0.48;100.00
62791;BME280;48830;53.426;10.300;2023-01-26T09:03:00;102296.72;;;0.53;100.00
62791;BME280;48830;53.426;10.300;2023-01-26T09:05:27;102293.69;;;0.57;100.00
62791;BME280;48830;53.426;10.300;2023-01-26T09:07:52;102292.03;;;0.58;100.00
62791;BME280;48830;53.426;10.300;2023-01-26T09:10:18;102300.88;;;0.63;100.00
62791;BME280;48830;53.426;10.300;2023-01-26T09:12:43;102305.94;;;0.63;100.00
62791;BME280;48830;53.426;10.300;2023-01-26T09:15:09;102306.31;;;0.67;100.00
62791;BME280;48830;53.426;10.300;2023-01-26T09:17:35;102302.25;;;0.69;100.00
62791;BME280;48830;53.426;10.300;2023-01-26T09:20:03;102304.78;;;0.59;100.00
62791;BME280;48830;53.426;10.300;2023-01-26T09:22:28;102301.00;;;0.64;100.00
62791;BME280;48830;53.426;10.300;2023-01-26T09:24:55;102291.16;;;0.57;100.00
62791;BME280;48830;53.426;10.300;2023-01-26T09:27:20;102295.69;;;0.71;100.00
62791;BME280;48830;53.426;10.300;2023-01-26T09:29:46;102295.69;;;0.71;100.00
62791;BME280;48830;53.426;10.300;2023-01-26T09:32:11;102283.03;;;0.71;100.00
62791;BME280;48830;53.426;10.300;2023-01-26T09:34:37;102280.72;;;0.74;100.00
62791;BME280;48830;53.426;10.300;2023-01-26T09:37:02;102289.94;;;0.74;100.00
62791;BME280;48830;53.426;10.300;2023-01-26T09:39:28;102286.03;;;0.77;100.00
62791;BME280;48830;53.426;10.300;2023-01-26T09:44:39;102286.31;;;0.70;100.00
62791;BME280;48830;53.426;10.300;2023-01-26T09:52:46;102290.31;;;0.78;100.00
62791;BME280;48830;53.426;10.300;2023-01-26T09:55:12;102287.75;;;0.89;100.00
62791;BME280;48830;53.426;10.300;2023-01-26T09:57:48;102289.88;;;0.94;100.00
62791;BME280;48830;53.426;10.300;2023-01-26T10:00:30;102291.81;;;0.87;100.00
62791;BME280;48830;53.426;10.300;2023-01-26T10:06:15;102280.16;;;0.89;100.00
62791;BME280;48830;53.426;10.300;2023-01-26T10:09:16;102281.81;;;0.88;100.00
62791;BME280;48830;53.426;10.300;2023-01-26T10:11:50;102277.09;;;0.93;100.00
62791;BME280;48830;53.426;10.300;2023-01-26T10:14:36;102279.34;;;1.00;100.00
62791;BME280;48830;53.426;10.300;2023-01-26T10:17:06;102271.50;;;0.97;100.00
62791;BME280;48830;53.426;10.300;2023-01-26T10:19:42;102268.09;;;0.96;100.00
62791;BME280;48830;53.426;10.300;2023-01-26T10:22:17;102259.34;;;1.03;100.00
62791;BME280;48830;53.426;10.300;2023-01-26T10:24:46;102259.34;;;1.03;100.00
62791;BME280;48830;53.426;10.300;2023-01-26T10:27:13;102255.56;;;0.98;100.00
62791;BME280;48830;53.426;10.300;2023-01-26T10:29:39;102263.56;;;1.14;100.00
62791;BME280;48830;53.426;10.300;2023-01-26T10:32:04;102265.38;;;1.27;100.00
62791;BME280;48830;53.426;10.300;2023-01-26T10:34:30;102257.44;;;1.22;100.00
62791;BME280;48830;53.426;10.300;2023-01-26T10:40:02;102252.72;;;1.61;100.00
62791;BME280;48830;53.426;10.300;2023-01-26T10:42:30;102247.91;;;1.75;100.00
62791;BME280;48830;53.426;10.300;2023-01-26T10:44:57;102252.09;;;1.75;100.00
62791;BME280;48830;53.426;10.300;2023-01-26T10:47:23;102252.53;;;1.69;100.00
62791;BME280;48830;53.426;10.300;2023-01-26T10:49:50;102246.34;;;1.66;100.00
62791;BME280;48830;53.426;10.300;2023-01-26T10:52:19;102244.81;;;1.68;100.00
62791;BME280;48830;53.426;10.300;2023-01-26T10:55:10;102240.75;;;1.70;100.00
62791;BME280;48830;53.426;10.300;2023-01-26T10:57:38;102241.72;;;1.72;100.00
62791;BME280;48830;53.426;10.300;2023-01-26T11:03:35;102236.91;;;1.75;100.00
62791;BME280;48830;53.426;10.300;2023-01-26T11:05:35;102238.75;;;1.77;100.00
62791;BME280;48830;53.426;10.300;2023-01-26T11:08:01;102243.09;;;1.78;100.00
62791;BME280;48830;53.426;10.300;2023-01-26T11:15:40;102245.38;;;1.75;100.00
62791;BME280;48830;53.426;10.300;2023-01-26T11:18:58;102245.19;;;1.72;100.00
62791;BME280;48830;53.426;10.300;2023-01-26T11:21:35;102237.09;;;1.66;100.00
62791;BME280;48830;53.426;10.300;2023-01-26T11:24:17;102236.66;;;1.72;100.00
62791;BME280;48830;53.426;10.300;2023-01-26T11:51:10;102209.81;;;1.86;100.00
62791;BME280;48830;53.426;10.300;2023-01-26T11:56:32;102209.91;;;1.99;100.00
62791;BME280;48830;53.426;10.300;2023-01-26T11:59:20;102206.72;;;1.90;100.00
62791;BME280;48830;53.426;10.300;2023-01-26T12:02:02;102205.19;;;1.92;100.00
62791;BME280;48830;53.426;10.300;2023-01-26T12:04:35;102197.91;;;1.96;100.00
62791;BME280;48830;53.426;10.300;2023-01-26T12:07:22;102182.94;;;1.99;100.00
62791;BME280;48830;53.426;10.300;2023-01-26T12:09:51;102184.88;;;2.03;100.00
62791;BME280;48830;53.426;10.300;2023-01-26T12:12:54;102183.13;;;2.02;100.00
62791;BME280;48830;53.426;10.300;2023-01-26T12:15:28;102180.25;;;1.98;100.00
62791;BME280;48830;53.426;10.300;2023-01-26T12:18:08;102191.84;;;1.94;100.00
62791;BME280;48830;53.426;10.300;2023-01-26T12:20:47;102183.66;;;1.98;100.00
62791;BME280;48830;53.426;10.300;2023-01-26T12:23:27;102170.56;;;2.04;100.00
62791;BME280;48830;53.426;10.300;2023-01-26T12:26:06;102173.09;;;2.04;100.00
62791;BME280;48830;53.426;10.300;2023-01-26T12:28:39;102153.56;;;2.03;100.00
62791;BME280;48830;53.426;10.300;2023-01-26T12:33:43;102162.41;;;2.08;100.00
62791;BME280;48830;53.426;10.300;2023-01-26T12:44:00;102147.84;;;2.17;100.00
62791;BME280;48830;53.426;10.300;2023-01-26T12:46:30;102149.84;;;2.21;100.00
62791;BME280;48830;53.426;10.300;2023-01-26T12:49:04;102145.19;;;2.27;100.00
62791;BME280;48830;53.426;10.300;2023-01-26T12:51:39;102139.69;;;2.21;100.00
62791;BME280;48830;53.426;10.300;2023-01-26T12:54:09;102145.97;;;2.26;100.00
62791;BME280;48830;53.426;10.300;2023-01-26T12:56:42;102145.84;;;2.25;100.00
62791;BME280;48830;53.426;10.300;2023-01-26T12:59:30;102140.09;;;2.27;100.00
62791;BME280;48830;53.426;10.300;2023-01-26T13:01:56;102136.78;;;2.28;100.00
62791;BME280;48830;53.426;10.300;2023-01-26T13:04:22;102143.16;;;2.35;100.00
62791;BME280;48830;53.426;10.300;2023-01-26T13:07:36;102131.25;;;2.34;100.00
62791;BME280;48830;53.426;10.300;2023-01-26T13:13:24;102138.97;;;2.35;100.00
62791;BME280;48830;53.426;10.300;2023-01-26T13:15:46;102137.66;;;2.41;100.00
62791;BME280;48830;53.426;10.300;2023-01-26T13:18:17;102142.72;;;2.41;100.00
62791;BME280;48830;53.426;10.300;2023-01-26T13:23:38;102145.81;;;2.48;100.00
62791;BME280;48830;53.426;10.300;2023-01-26T13:26:58;102142.41;;;2.48;100.00
62791;BME280;48830;53.426;10.300;2023-01-26T13:31:56;102144.94;;;2.48;100.00
62791;BME280;48830;53.426;10.300;2023-01-26T13:34:32;102150.19;;;2.51;100.00
62791;BME280;48830;53.426;10.300;2023-01-26T13:40:31;102155.50;;;2.54;100.00
62791;BME280;48830;53.426;10.300;2023-01-26T13:43:05;102150.44;;;2.54;100.00
62791;BME280;48830;53.426;10.300;2023-01-26T13:45:49;102150.84;;;2.60;100.00
62791;BME280;48830;53.426;10.300;2023-01-26T13:48:27;102151.03;;;2.63;100.00
62791;BME280;48830;53.426;10.300;2023-01-26T13:50:59;102147.75;;;2.64;100.00
62791;BME280;48830;53.426;10.300;2023-01-26T13:56:01;102153.25;;;2.70;100.00
62791;BME280;48830;53.426;10.300;2023-01-26T13:58:27;102155.00;;;2.71;100.00
62791;BME280;48830;53.426;10.300;2023-01-26T14:01:00;102157.00;;;2.75;100.00
62791;BME280;48830;53.426;10.300;2023-01-26T14:03:26;102161.94;;;2.74;100.00
62791;BME280;48830;53.426;10.300;2023-01-26T14:06:40;102159.53;;;2.75;100.00
62791;BME280;48830;53.426;10.300;2023-01-26T14:08:54;102158.94;;;2.79;100.00
62791;BME280;48830;53.426;10.300;2023-01-26T14:11:24;102155.31;;;2.76;100.00
62791;BME280;48830;53.426;10.300;2023-01-26T14:13:56;102164.16;;;2.81;100.00
62791;BME280;48830;53.426;10.300;2023-01-26T14:16:34;102170.88;;;2.80;100.00